sensor_id;sensor_type;location;lat;lon;timestamp;P1;durP1;ratioP1;P2;durP2;ratioP2
57985;SDS011;43788;42.670;23.330;2022-11-14T00:01:05;0.70;;;0.70;;
57985;SDS011;43788;42.670;23.330;2022-11-14T00:03:31;0.88;;;0.88;;
57985;SDS011;43788;42.670;23.330;2022-11-14T00:05:57;0.60;;;0.60;;
57985;SDS011;43788;42.670;23.330;2022-11-14T00:08:22;0.90;;;0.90;;
57985;SDS011;43788;42.670;23.330;2022-11-14T00:10:50;1.08;;;1.08;;
57985;SDS011;43788;42.670;23.330;2022-11-14T00:13:16;0.75;;;0.75;;
57985;SDS011;43788;42.670;23.330;2022-11-14T00:15:42;0.55;;;0.55;;
57985;SDS011;43788;42.670;23.330;2022-11-14T00:18:08;0.77;;;0.77;;
57985;SDS011;43788;42.670;23.330;2022-11-14T00:20:34;0.40;;;0.40;;
57985;SDS011;43788;42.670;23.330;2022-11-14T00:22:59;0.60;;;0.60;;
57985;SDS011;43788;42.670;23.330;2022-11-14T00:25:25;0.85;;;0.85;;
57985;SDS011;43788;42.670;23.330;2022-11-14T00:27:50;0.65;;;0.65;;
57985;SDS011;43788;42.670;23.330;2022-11-14T00:30:15;0.50;;;0.50;;
57985;SDS011;43788;42.670;23.330;2022-11-14T00:32:41;0.57;;;0.57;;
57985;SDS011;43788;42.670;23.330;2022-11-14T00:35:06;0.50;;;0.50;;
57985;SDS011;43788;42.670;23.330;2022-11-14T00:37:33;0.40;;;0.40;;
57985;SDS011;43788;42.670;23.330;2022-11-14T00:39:59;0.30;;;0.30;;
57985;SDS011;43788;42.670;23.330;2022-11-14T00:42:24;0.40;;;0.40;;
57985;SDS011;43788;42.670;23.330;2022-11-14T00:44:50;0.28;;;0.28;;
57985;SDS011;43788;42.670;23.330;2022-11-14T00:47:15;0.28;;;0.28;;
57985;SDS011;43788;42.670;23.330;2022-11-14T00:49:40;0.30;;;0.30;;
57985;SDS011;43788;42.670;23.330;2022-11-14T00:52:06;0.30;;;0.30;;
57985;SDS011;43788;42.670;23.330;2022-11-14T00:54:31;0.50;;;0.50;;
57985;SDS011;43788;42.670;23.330;2022-11-14T00:56:57;0.30;;;0.30;;
57985;SDS011;43788;42.670;23.330;2022-11-14T00:59:22;0.55;;;0.55;;
57985;SDS011;43788;42.670;23.330;2022-11-14T01:01:47;0.30;;;0.30;;
57985;SDS011;43788;42.670;23.330;2022-11-14T01:04:14;0.30;;;0.30;;
57985;SDS011;43788;42.670;23.330;2022-11-14T01:06:39;0.20;;;0.20;;
57985;SDS011;43788;42.670;23.330;2022-11-14T01:09:05;0.28;;;0.28;;
57985;SDS011;43788;42.670;23.330;2022-11-14T01:11:31;0.20;;;0.20;;
57985;SDS011;43788;42.670;23.330;2022-11-14T01:13:56;0.40;;;0.40;;
57985;SDS011;43788;42.670;23.330;2022-11-14T01:16:21;0.20;;;0.20;;
57985;SDS011;43788;42.670;23.330;2022-11-14T01:18:49;0.32;;;0.32;;
57985;SDS011;43788;42.670;23.330;2022-11-14T01:21:14;0.40;;;0.40;;
57985;SDS011;43788;42.670;23.330;2022-11-14T01:23:40;0.25;;;0.25;;
57985;SDS011;43788;42.670;23.330;2022-11-14T01:26:07;0.30;;;0.30;;
57985;SDS011;43788;42.670;23.330;2022-11-14T01:28:34;0.20;;;0.20;;
57985;SDS011;43788;42.670;23.330;2022-11-14T01:31:10;0.40;;;0.40;;
57985;SDS011;43788;42.670;23.330;2022-11-14T01:33:37;0.20;;;0.20;;
57985;SDS011;43788;42.670;23.330;2022-11-14T01:36:04;0.30;;;0.30;;
57985;SDS011;43788;42.670;23.330;2022-11-14T01:38:30;0.20;;;0.20;;
57985;SDS011;43788;42.670;23.330;2022-11-14T01:40:56;0.20;;;0.20;;
57985;SDS011;43788;42.670;23.330;2022-11-14T01:43:32;0.30;;;0.30;;
57985;SDS011;43788;42.670;23.330;2022-11-14T01:46:04;0.30;;;0.30;;
57985;SDS011;43788;42.670;23.330;2022-11-14T01:53:52;0.50;;;0.50;;
57985;SDS011;43788;42.670;23.330;2022-11-14T01:56:24;0.80;;;0.80;;
57985;SDS011;43788;42.670;23.330;2022-11-14T01:59:13;0.90;;;0.90;;
57985;SDS011;43788;42.670;23.330;2022-11-14T02:01:45;0.95;;;0.90;;
57985;SDS011;43788;42.670;23.330;2022-11-14T02:04:12;0.63;;;0.63;;
57985;SDS011;43788;42.670;23.330;2022-11-14T02:06:42;0.77;;;0.77;;
57985;SDS011;43788;42.670;23.330;2022-11-14T02:09:07;0.80;;;0.80;;
57985;SDS011;43788;42.670;23.330;2022-11-14T02:11:37;0.65;;;0.63;;
57985;SDS011;43788;42.670;23.330;2022-11-14T02:14:05;0.70;;;0.70;;
57985;SDS011;43788;42.670;23.330;2022-11-14T02:16:30;1.30;;;1.20;;
57985;SDS011;43788;42.670;23.330;2022-11-14T02:18:56;0.77;;;0.77;;
57985;SDS011;43788;42.670;23.330;2022-11-14T02:21:21;0.80;;;0.80;;
57985;SDS011;43788;42.670;23.330;2022-11-14T02:23:47;1.40;;;1.30;;
57985;SDS011;43788;42.670;23.330;2022-11-14T02:26:14;0.57;;;0.57;;
57985;SDS011;43788;42.670;23.330;2022-11-14T02:28:41;0.90;;;0.90;;
57985;SDS011;43788;42.670;23.330;2022-11-14T02:31:07;1.08;;;1.08;;
57985;SDS011;43788;42.670;23.330;2022-11-14T02:33:33;1.15;;;1.15;;
57985;SDS011;43788;42.670;23.330;2022-11-14T02:35:59;0.77;;;0.77;;
57985;SDS011;43788;42.670;23.330;2022-11-14T02:38:25;0.90;;;0.90;;
57985;SDS011;43788;42.670;23.330;2022-11-14T02:40:50;0.77;;;0.77;;
57985;SDS011;43788;42.670;23.330;2022-11-14T02:43:15;0.52;;;0.52;;
57985;SDS011;43788;42.670;23.330;2022-11-14T02:45:41;0.50;;;0.50;;
57985;SDS011;43788;42.670;23.330;2022-11-14T02:48:06;0.65;;;0.65;;
57985;SDS011;43788;42.670;23.330;2022-11-14T02:50:32;0.50;;;0.50;;
57985;SDS011;43788;42.670;23.330;2022-11-14T02:52:57;0.50;;;0.50;;
57985;SDS011;43788;42.670;23.330;2022-11-14T02:55:22;0.75;;;0.75;;
57985;SDS011;43788;42.670;23.330;2022-11-14T02:57:48;0.32;;;0.32;;
57985;SDS011;43788;42.670;23.330;2022-11-14T03:00:13;0.28;;;0.28;;
57985;SDS011;43788;42.670;23.330;2022-11-14T03:02:39;0.65;;;0.65;;
57985;SDS011;43788;42.670;23.330;2022-11-14T03:05:04;0.82;;;0.82;;
57985;SDS011;43788;42.670;23.330;2022-11-14T03:07:30;0.52;;;0.52;;
57985;SDS011;43788;42.670;23.330;2022-11-14T03:09:58;0.60;;;0.60;;
57985;SDS011;43788;42.670;23.330;2022-11-14T03:12:23;0.77;;;0.77;;
57985;SDS011;43788;42.670;23.330;2022-11-14T03:14:48;0.85;;;0.85;;
57985;SDS011;43788;42.670;23.330;2022-11-14T03:17:14;1.10;;;1.00;;
57985;SDS011;43788;42.670;23.330;2022-11-14T03:19:39;1.58;;;0.90;;
57985;SDS011;43788;42.670;23.330;2022-11-14T03:22:04;0.57;;;0.57;;
57985;SDS011;43788;42.670;23.330;2022-11-14T03:24:30;0.73;;;0.73;;
57985;SDS011;43788;42.670;23.330;2022-11-14T03:26:55;0.85;;;0.85;;
57985;SDS011;43788;42.670;23.330;2022-11-14T03:29:21;1.00;;;1.00;;
57985;SDS011;43788;42.670;23.330;2022-11-14T03:31:47;0.70;;;0.70;;
57985;SDS011;43788;42.670;23.330;2022-11-14T03:34:13;0.80;;;0.80;;
57985;SDS011;43788;42.670;23.330;2022-11-14T03:36:39;0.57;;;0.57;;
57985;SDS011;43788;42.670;23.330;2022-11-14T03:39:05;0.57;;;0.57;;
57985;SDS011;43788;42.670;23.330;2022-11-14T03:41:31;0.40;;;0.40;;
57985;SDS011;43788;42.670;23.330;2022-11-14T03:43:57;0.40;;;0.40;;
57985;SDS011;43788;42.670;23.330;2022-11-14T03:46:22;0.40;;;0.40;;
57985;SDS011;43788;42.670;23.330;2022-11-14T03:48:48;0.35;;;0.35;;
57985;SDS011;43788;42.670;23.330;2022-11-14T03:51:13;0.80;;;0.80;;
57985;SDS011;43788;42.670;23.330;2022-11-14T03:53:38;0.60;;;0.60;;
57985;SDS011;43788;42.670;23.330;2022-11-14T03:56:04;0.43;;;0.43;;
57985;SDS011;43788;42.670;23.330;2022-11-14T03:58:29;0.90;;;0.80;;
57985;SDS011;43788;42.670;23.330;2022-11-14T04:00:55;0.80;;;0.80;;
57985;SDS011;43788;42.670;23.330;2022-11-14T04:03:21;2.47;;;1.20;;
57985;SDS011;43788;42.670;23.330;2022-11-14T04:05:47;0.47;;;0.47;;
57985;SDS011;43788;42.670;23.330;2022-11-14T04:08:13;0.57;;;0.57;;
57985;SDS011;43788;42.670;23.330;2022-11-14T04:10:38;2.95;;;1.15;;
57985;SDS011;43788;42.670;23.330;2022-11-14T04:13:05;3.63;;;1.15;;
57985;SDS011;43788;42.670;23.330;2022-11-14T04:15:30;0.93;;;0.93;;
57985;SDS011;43788;42.670;23.330;2022-11-14T04:17:56;0.30;;;0.30;;
57985;SDS011;43788;42.670;23.330;2022-11-14T04:20:22;0.50;;;0.50;;
57985;SDS011;43788;42.670;23.330;2022-11-14T04:22:47;0.82;;;0.80;;
57985;SDS011;43788;42.670;23.330;2022-11-14T04:25:12;0.93;;;0.93;;
57985;SDS011;43788;42.670;23.330;2022-11-14T04:27:38;0.75;;;0.75;;
57985;SDS011;43788;42.670;23.330;2022-11-14T04:30:04;0.60;;;0.60;;
57985;SDS011;43788;42.670;23.330;2022-11-14T04:32:30;0.40;;;0.40;;
57985;SDS011;43788;42.670;23.330;2022-11-14T04:34:59;2.70;;;0.88;;
57985;SDS011;43788;42.670;23.330;2022-11-14T04:37:25;0.30;;;0.30;;
57985;SDS011;43788;42.670;23.330;2022-11-14T04:39:50;1.08;;;0.77;;
57985;SDS011;43788;42.670;23.330;2022-11-14T04:42:16;0.70;;;0.70;;
57985;SDS011;43788;42.670;23.330;2022-11-14T04:44:41;0.88;;;0.88;;
57985;SDS011;43788;42.670;23.330;2022-11-14T04:47:07;0.35;;;0.35;;
57985;SDS011;43788;42.670;23.330;2022-11-14T04:49:34;2.75;;;0.75;;
57985;SDS011;43788;42.670;23.330;2022-11-14T04:52:00;0.52;;;0.52;;
57985;SDS011;43788;42.670;23.330;2022-11-14T04:54:25;0.70;;;0.70;;
57985;SDS011;43788;42.670;23.330;2022-11-14T04:56:51;0.68;;;0.68;;
57985;SDS011;43788;42.670;23.330;2022-11-14T04:59:16;1.35;;;0.60;;
57985;SDS011;43788;42.670;23.330;2022-11-14T05:01:41;0.52;;;0.52;;
57985;SDS011;43788;42.670;23.330;2022-11-14T05:04:08;0.50;;;0.50;;
57985;SDS011;43788;42.670;23.330;2022-11-14T05:06:34;0.40;;;0.40;;
57985;SDS011;43788;42.670;23.330;2022-11-14T05:08:59;0.45;;;0.45;;
57985;SDS011;43788;42.670;23.330;2022-11-14T05:11:25;0.55;;;0.55;;
57985;SDS011;43788;42.670;23.330;2022-11-14T05:13:51;0.43;;;0.43;;
57985;SDS011;43788;42.670;23.330;2022-11-14T05:16:17;0.40;;;0.40;;
57985;SDS011;43788;42.670;23.330;2022-11-14T05:25:35;0.20;;;0.20;;
57985;SDS011;43788;42.670;23.330;2022-11-14T05:28:01;3.92;;;1.33;;
57985;SDS011;43788;42.670;23.330;2022-11-14T05:30:26;1.95;;;1.08;;
57985;SDS011;43788;42.670;23.330;2022-11-14T05:32:51;0.55;;;0.55;;
57985;SDS011;43788;42.670;23.330;2022-11-14T05:35:18;0.40;;;0.40;;
57985;SDS011;43788;42.670;23.330;2022-11-14T05:37:46;1.10;;;0.82;;
57985;SDS011;43788;42.670;23.330;2022-11-14T05:40:18;0.20;;;0.20;;
57985;SDS011;43788;42.670;23.330;2022-11-14T05:42:44;3.05;;;1.20;;
57985;SDS011;43788;42.670;23.330;2022-11-14T05:45:09;0.40;;;0.40;;
57985;SDS011;43788;42.670;23.330;2022-11-14T05:47:35;0.60;;;0.60;;
57985;SDS011;43788;42.670;23.330;2022-11-14T05:50:00;0.40;;;0.40;;
57985;SDS011;43788;42.670;23.330;2022-11-14T05:52:26;0.40;;;0.40;;
57985;SDS011;43788;42.670;23.330;2022-11-14T05:54:52;0.47;;;0.47;;
57985;SDS011;43788;42.670;23.330;2022-11-14T05:57:17;0.30;;;0.30;;
57985;SDS011;43788;42.670;23.330;2022-11-14T05:59:43;0.20;;;0.20;;
57985;SDS011;43788;42.670;23.330;2022-11-14T06:02:08;0.40;;;0.40;;
57985;SDS011;43788;42.670;23.330;2022-11-14T06:04:33;0.22;;;0.22;;
57985;SDS011;43788;42.670;23.330;2022-11-14T06:06:59;0.32;;;0.32;;
57985;SDS011;43788;42.670;23.330;2022-11-14T06:09:24;0.60;;;0.60;;
57985;SDS011;43788;42.670;23.330;2022-11-14T06:11:50;0.40;;;0.40;;
57985;SDS011;43788;42.670;23.330;2022-11-14T06:14:15;0.13;;;0.13;;
57985;SDS011;43788;42.670;23.330;2022-11-14T06:16:41;0.40;;;0.40;;
57985;SDS011;43788;42.670;23.330;2022-11-14T06:19:10;0.45;;;0.45;;
57985;SDS011;43788;42.670;23.330;2022-11-14T06:21:35;0.22;;;0.22;;
57985;SDS011;43788;42.670;23.330;2022-11-14T06:24:10;0.32;;;0.30;;
57985;SDS011;43788;42.670;23.330;2022-11-14T06:26:57;0.45;;;0.40;;
57985;SDS011;43788;42.670;23.330;2022-11-14T06:29:32;0.30;;;0.30;;
57985;SDS011;43788;42.670;23.330;2022-11-14T06:32:02;0.40;;;0.40;;
57985;SDS011;43788;42.670;23.330;2022-11-14T06:34:27;0.35;;;0.35;;
57985;SDS011;43788;42.670;23.330;2022-11-14T06:36:53;0.15;;;0.15;;
57985;SDS011;43788;42.670;23.330;2022-11-14T06:39:18;0.50;;;0.50;;
57985;SDS011;43788;42.670;23.330;2022-11-14T06:41:44;0.17;;;0.17;;
57985;SDS011;43788;42.670;23.330;2022-11-14T06:44:10;0.50;;;0.50;;
57985;SDS011;43788;42.670;23.330;2022-11-14T06:46:35;0.28;;;0.28;;
57985;SDS011;43788;42.670;23.330;2022-11-14T06:49:00;0.40;;;0.40;;
57985;SDS011;43788;42.670;23.330;2022-11-14T06:51:26;0.43;;;0.43;;
57985;SDS011;43788;42.670;23.330;2022-11-14T06:53:52;0.70;;;0.30;;
57985;SDS011;43788;42.670;23.330;2022-11-14T06:56:18;1.15;;;0.50;;
57985;SDS011;43788;42.670;23.330;2022-11-14T07:02:12;0.38;;;0.38;;
57985;SDS011;43788;42.670;23.330;2022-11-14T07:04:37;0.32;;;0.32;;
57985;SDS011;43788;42.670;23.330;2022-11-14T07:07:03;0.45;;;0.45;;
57985;SDS011;43788;42.670;23.330;2022-11-14T07:09:28;0.43;;;0.43;;
57985;SDS011;43788;42.670;23.330;2022-11-14T07:12:06;0.35;;;0.35;;
57985;SDS011;43788;42.670;23.330;2022-11-14T07:14:33;0.20;;;0.20;;
57985;SDS011;43788;42.670;23.330;2022-11-14T07:16:58;0.50;;;0.50;;
57985;SDS011;43788;42.670;23.330;2022-11-14T07:19:24;0.30;;;0.30;;
57985;SDS011;43788;42.670;23.330;2022-11-14T07:21:50;0.30;;;0.30;;
57985;SDS011;43788;42.670;23.330;2022-11-14T07:24:15;0.55;;;0.55;;
57985;SDS011;43788;42.670;23.330;2022-11-14T07:26:41;0.55;;;0.47;;
57985;SDS011;43788;42.670;23.330;2022-11-14T07:29:06;0.25;;;0.25;;
57985;SDS011;43788;42.670;23.330;2022-11-14T07:31:47;0.50;;;0.50;;
57985;SDS011;43788;42.670;23.330;2022-11-14T07:34:41;0.30;;;0.30;;
57985;SDS011;43788;42.670;23.330;2022-11-14T07:37:47;0.45;;;0.40;;
57985;SDS011;43788;42.670;23.330;2022-11-14T07:40:17;0.20;;;0.20;;
57985;SDS011;43788;42.670;23.330;2022-11-14T07:43:34;0.40;;;0.40;;
57985;SDS011;43788;42.670;23.330;2022-11-14T07:49:57;0.32;;;0.32;;
57985;SDS011;43788;42.670;23.330;2022-11-14T07:53:27;0.50;;;0.50;;
57985;SDS011;43788;42.670;23.330;2022-11-14T07:55:54;0.57;;;0.57;;
57985;SDS011;43788;42.670;23.330;2022-11-14T07:58:20;0.30;;;0.30;;
57985;SDS011;43788;42.670;23.330;2022-11-14T08:00:45;0.65;;;0.65;;
57985;SDS011;43788;42.670;23.330;2022-11-14T08:03:18;1.20;;;0.93;;
57985;SDS011;43788;42.670;23.330;2022-11-14T08:06:14;0.50;;;0.50;;
57985;SDS011;43788;42.670;23.330;2022-11-14T08:08:40;0.65;;;0.65;;
57985;SDS011;43788;42.670;23.330;2022-11-14T08:11:06;0.52;;;0.52;;
57985;SDS011;43788;42.670;23.330;2022-11-14T08:13:31;0.50;;;0.50;;
57985;SDS011;43788;42.670;23.330;2022-11-14T08:15:57;0.65;;;0.65;;
57985;SDS011;43788;42.670;23.330;2022-11-14T08:18:24;0.60;;;0.60;;
57985;SDS011;43788;42.670;23.330;2022-11-14T08:20:49;1.35;;;0.60;;
57985;SDS011;43788;42.670;23.330;2022-11-14T08:23:15;0.40;;;0.40;;
57985;SDS011;43788;42.670;23.330;2022-11-14T08:25:41;0.38;;;0.38;;
57985;SDS011;43788;42.670;23.330;2022-11-14T08:28:08;0.95;;;0.85;;
57985;SDS011;43788;42.670;23.330;2022-11-14T08:30:34;0.40;;;0.40;;
57985;SDS011;43788;42.670;23.330;2022-11-14T08:33:51;0.40;;;0.40;;
57985;SDS011;43788;42.670;23.330;2022-11-14T08:36:18;0.40;;;0.40;;
57985;SDS011;43788;42.670;23.330;2022-11-14T08:38:44;0.45;;;0.45;;
57985;SDS011;43788;42.670;23.330;2022-11-14T08:41:09;0.63;;;0.63;;
57985;SDS011;43788;42.670;23.330;2022-11-14T08:43:35;0.65;;;0.65;;
57985;SDS011;43788;42.670;23.330;2022-11-14T08:46:01;0.50;;;0.50;;
57985;SDS011;43788;42.670;23.330;2022-11-14T08:48:36;0.82;;;0.82;;
57985;SDS011;43788;42.670;23.330;2022-11-14T08:51:19;0.68;;;0.68;;
57985;SDS011;43788;42.670;23.330;2022-11-14T08:53:46;0.65;;;0.65;;
57985;SDS011;43788;42.670;23.330;2022-11-14T08:56:16;0.45;;;0.45;;
57985;SDS011;43788;42.670;23.330;2022-11-14T08:58:42;0.50;;;0.50;;
57985;SDS011;43788;42.670;23.330;2022-11-14T09:01:08;0.75;;;0.75;;
57985;SDS011;43788;42.670;23.330;2022-11-14T09:03:33;0.70;;;0.70;;
57985;SDS011;43788;42.670;23.330;2022-11-14T09:06:01;0.70;;;0.70;;
57985;SDS011;43788;42.670;23.330;2022-11-14T09:08:28;0.50;;;0.50;;
57985;SDS011;43788;42.670;23.330;2022-11-14T09:10:54;0.32;;;0.32;;
57985;SDS011;43788;42.670;23.330;2022-11-14T09:13:23;0.63;;;0.63;;
57985;SDS011;43788;42.670;23.330;2022-11-14T09:15:48;0.50;;;0.50;;
57985;SDS011;43788;42.670;23.330;2022-11-14T09:18:14;0.60;;;0.60;;
57985;SDS011;43788;42.670;23.330;2022-11-14T09:20:39;0.50;;;0.50;;
57985;SDS011;43788;42.670;23.330;2022-11-14T09:23:05;0.77;;;0.77;;
57985;SDS011;43788;42.670;23.330;2022-11-14T09:25:31;0.60;;;0.60;;
57985;SDS011;43788;42.670;23.330;2022-11-14T09:27:56;0.52;;;0.52;;
57985;SDS011;43788;42.670;23.330;2022-11-14T09:30:22;0.50;;;0.50;;
57985;SDS011;43788;42.670;23.330;2022-11-14T09:32:50;0.80;;;0.80;;
57985;SDS011;43788;42.670;23.330;2022-11-14T09:35:18;0.75;;;0.75;;
57985;SDS011;43788;42.670;23.330;2022-11-14T09:37:44;0.50;;;0.50;;
57985;SDS011;43788;42.670;23.330;2022-11-14T09:40:11;1.30;;;1.02;;
57985;SDS011;43788;42.670;23.330;2022-11-14T09:45:12;0.80;;;0.80;;
57985;SDS011;43788;42.670;23.330;2022-11-14T09:47:49;0.90;;;0.90;;
57985;SDS011;43788;42.670;23.330;2022-11-14T09:50:19;0.70;;;0.70;;
57985;SDS011;43788;42.670;23.330;2022-11-14T09:53:19;1.05;;;0.68;;
57985;SDS011;43788;42.670;23.330;2022-11-14T09:55:49;0.70;;;0.70;;
57985;SDS011;43788;42.670;23.330;2022-11-14T09:58:17;0.95;;;0.82;;
57985;SDS011;43788;42.670;23.330;2022-11-14T10:00:49;0.80;;;0.80;;
57985;SDS011;43788;42.670;23.330;2022-11-14T10:03:22;0.70;;;0.70;;
57985;SDS011;43788;42.670;23.330;2022-11-14T10:14:23;1.10;;;1.00;;
57985;SDS011;43788;42.670;23.330;2022-11-14T10:20:00;0.90;;;0.90;;
57985;SDS011;43788;42.670;23.330;2022-11-14T10:25:24;0.90;;;0.90;;
57985;SDS011;43788;42.670;23.330;2022-11-14T10:34:05;0.73;;;0.73;;
57985;SDS011;43788;42.670;23.330;2022-11-14T10:39:40;0.80;;;0.80;;
57985;SDS011;43788;42.670;23.330;2022-11-14T11:08:48;0.82;;;0.82;;
57985;SDS011;43788;42.670;23.330;2022-11-14T11:11:38;1.23;;;0.85;;
57985;SDS011;43788;42.670;23.330;2022-11-14T11:24:34;0.80;;;0.80;;
57985;SDS011;43788;42.670;23.330;2022-11-14T11:27:17;1.08;;;1.08;;
57985;SDS011;43788;42.670;23.330;2022-11-14T11:30:20;0.80;;;0.73;;
57985;SDS011;43788;42.670;23.330;2022-11-14T11:32:47;0.80;;;0.80;;
57985;SDS011;43788;42.670;23.330;2022-11-14T11:35:14;0.95;;;0.95;;
57985;SDS011;43788;42.670;23.330;2022-11-14T11:37:54;0.88;;;0.88;;
57985;SDS011;43788;42.670;23.330;2022-11-14T11:40:24;0.88;;;0.88;;
57985;SDS011;43788;42.670;23.330;2022-11-14T11:45:48;1.25;;;1.02;;
57985;SDS011;43788;42.670;23.330;2022-11-14T11:57:42;1.15;;;1.15;;
57985;SDS011;43788;42.670;23.330;2022-11-14T12:00:13;0.85;;;0.85;;
57985;SDS011;43788;42.670;23.330;2022-11-14T12:06:15;1.83;;;1.20;;
57985;SDS011;43788;42.670;23.330;2022-11-14T12:18:10;4.68;;;1.52;;
57985;SDS011;43788;42.670;23.330;2022-11-14T12:27:22;1.10;;;1.10;;
57985;SDS011;43788;42.670;23.330;2022-11-14T12:32:32;1.23;;;1.13;;
57985;SDS011;43788;42.670;23.330;2022-11-14T12:35:30;1.17;;;1.17;;
57985;SDS011;43788;42.670;23.330;2022-11-14T12:37:58;1.50;;;1.40;;
57985;SDS011;43788;42.670;23.330;2022-11-14T12:40:36;1.23;;;1.17;;
57985;SDS011;43788;42.670;23.330;2022-11-14T12:43:36;1.40;;;1.30;;
57985;SDS011;43788;42.670;23.330;2022-11-14T12:46:04;1.05;;;0.95;;
57985;SDS011;43788;42.670;23.330;2022-11-14T12:48:40;1.23;;;1.15;;
57985;SDS011;43788;42.670;23.330;2022-11-14T12:54:45;1.15;;;1.15;;
57985;SDS011;43788;42.670;23.330;2022-11-14T12:57:38;1.13;;;1.13;;
57985;SDS011;43788;42.670;23.330;2022-11-14T13:05:51;1.42;;;1.33;;
57985;SDS011;43788;42.670;23.330;2022-11-14T13:14:24;1.48;;;1.38;;
57985;SDS011;43788;42.670;23.330;2022-11-14T13:17:15;1.23;;;1.23;;
57985;SDS011;43788;42.670;23.330;2022-11-14T13:20:22;0.95;;;0.95;;
57985;SDS011;43788;42.670;23.330;2022-11-14T13:28:48;1.40;;;1.33;;
57985;SDS011;43788;42.670;23.330;2022-11-14T13:39:19;1.02;;;1.02;;
57985;SDS011;43788;42.670;23.330;2022-11-14T13:50:10;1.92;;;1.80;;
57985;SDS011;43788;42.670;23.330;2022-11-14T13:52:41;1.55;;;1.45;;
57985;SDS011;43788;42.670;23.330;2022-11-14T13:55:17;3.40;;;2.70;;
57985;SDS011;43788;42.670;23.330;2022-11-14T13:58:00;2.00;;;1.90;;
57985;SDS011;43788;42.670;23.330;2022-11-14T14:00:51;1.73;;;1.63;;
57985;SDS011;43788;42.670;23.330;2022-11-14T14:09:16;2.00;;;1.90;;
57985;SDS011;43788;42.670;23.330;2022-11-14T14:12:05;2.50;;;2.30;;
57985;SDS011;43788;42.670;23.330;2022-11-14T14:17:21;2.08;;;1.98;;
57985;SDS011;43788;42.670;23.330;2022-11-14T14:31:21;1.58;;;1.48;;
57985;SDS011;43788;42.670;23.330;2022-11-14T14:33:51;1.90;;;1.80;;
57985;SDS011;43788;42.670;23.330;2022-11-14T14:38:42;1.67;;;1.58;;
57985;SDS011;43788;42.670;23.330;2022-11-14T14:41:08;2.45;;;2.22;;
57985;SDS011;43788;42.670;23.330;2022-11-14T14:43:34;2.33;;;2.13;;
57985;SDS011;43788;42.670;23.330;2022-11-14T14:46:01;1.67;;;1.58;;
57985;SDS011;43788;42.670;23.330;2022-11-14T14:48:27;3.25;;;2.05;;
57985;SDS011;43788;42.670;23.330;2022-11-14T14:50:55;2.38;;;2.13;;
57985;SDS011;43788;42.670;23.330;2022-11-14T14:53:26;1.88;;;1.77;;
57985;SDS011;43788;42.670;23.330;2022-11-14T14:56:19;2.20;;;2.00;;
57985;SDS011;43788;42.670;23.330;2022-11-14T14:58:45;1.80;;;1.70;;
57985;SDS011;43788;42.670;23.330;2022-11-14T15:01:14;2.45;;;2.25;;
57985;SDS011;43788;42.670;23.330;2022-11-14T15:03:57;2.00;;;1.85;;
57985;SDS011;43788;42.670;23.330;2022-11-14T15:06:35;2.55;;;2.35;;
57985;SDS011;43788;42.670;23.330;2022-11-14T15:09:09;4.22;;;1.90;;
57985;SDS011;43788;42.670;23.330;2022-11-14T15:11:43;2.08;;;1.98;;
57985;SDS011;43788;42.670;23.330;2022-11-14T15:14:14;1.60;;;1.52;;
57985;SDS011;43788;42.670;23.330;2022-11-14T15:16:45;5.35;;;2.40;;
57985;SDS011;43788;42.670;23.330;2022-11-14T15:19:14;1.65;;;1.55;;
57985;SDS011;43788;42.670;23.330;2022-11-14T15:21:42;2.33;;;2.13;;
57985;SDS011;43788;42.670;23.330;2022-11-14T15:26:39;2.25;;;2.10;;
57985;SDS011;43788;42.670;23.330;2022-11-14T15:29:20;1.92;;;1.83;;
57985;SDS011;43788;42.670;23.330;2022-11-14T15:31:59;1.73;;;1.63;;
57985;SDS011;43788;42.670;23.330;2022-11-14T15:35:08;2.55;;;2.35;;
57985;SDS011;43788;42.670;23.330;2022-11-14T15:38:30;1.80;;;1.70;;
57985;SDS011;43788;42.670;23.330;2022-11-14T15:48:58;1.90;;;1.80;;
57985;SDS011;43788;42.670;23.330;2022-11-14T15:51:37;1.88;;;1.77;;
57985;SDS011;43788;42.670;23.330;2022-11-14T15:54:17;2.88;;;2.28;;
57985;SDS011;43788;42.670;23.330;2022-11-14T15:56:47;1.85;;;1.75;;
57985;SDS011;43788;42.670;23.330;2022-11-14T15:59:13;2.15;;;2.05;;
57985;SDS011;43788;42.670;23.330;2022-11-14T16:01:39;2.05;;;1.95;;
57985;SDS011;43788;42.670;23.330;2022-11-14T16:04:04;2.15;;;2.03;;
57985;SDS011;43788;42.670;23.330;2022-11-14T16:06:30;1.88;;;1.77;;
57985;SDS011;43788;42.670;23.330;2022-11-14T16:08:57;3.33;;;2.10;;
57985;SDS011;43788;42.670;23.330;2022-11-14T16:11:22;3.65;;;2.13;;
57985;SDS011;43788;42.670;23.330;2022-11-14T16:13:47;2.72;;;2.53;;
57985;SDS011;43788;42.670;23.330;2022-11-14T16:16:13;2.05;;;1.95;;
57985;SDS011;43788;42.670;23.330;2022-11-14T16:18:38;2.15;;;2.05;;
57985;SDS011;43788;42.670;23.330;2022-11-14T16:21:04;1.77;;;1.67;;
57985;SDS011;43788;42.670;23.330;2022-11-14T16:23:29;2.10;;;2.00;;
57985;SDS011;43788;42.670;23.330;2022-11-14T16:25:55;1.98;;;1.88;;
57985;SDS011;43788;42.670;23.330;2022-11-14T16:28:20;2.45;;;2.28;;
57985;SDS011;43788;42.670;23.330;2022-11-14T16:30:46;2.38;;;2.20;;
57985;SDS011;43788;42.670;23.330;2022-11-14T16:33:13;1.75;;;1.65;;
57985;SDS011;43788;42.670;23.330;2022-11-14T16:35:46;2.30;;;2.10;;
57985;SDS011;43788;42.670;23.330;2022-11-14T16:38:12;2.22;;;2.10;;
57985;SDS011;43788;42.670;23.330;2022-11-14T16:40:40;2.22;;;2.13;;
57985;SDS011;43788;42.670;23.330;2022-11-14T16:43:08;1.60;;;1.50;;
57985;SDS011;43788;42.670;23.330;2022-11-14T16:45:38;2.35;;;2.15;;
57985;SDS011;43788;42.670;23.330;2022-11-14T16:48:04;2.63;;;2.10;;
57985;SDS011;43788;42.670;23.330;2022-11-14T16:50:30;1.88;;;1.77;;
57985;SDS011;43788;42.670;23.330;2022-11-14T16:52:55;2.05;;;1.95;;
57985;SDS011;43788;42.670;23.330;2022-11-14T16:55:23;2.92;;;2.72;;
57985;SDS011;43788;42.670;23.330;2022-11-14T16:57:49;3.08;;;1.83;;
57985;SDS011;43788;42.670;23.330;2022-11-14T17:00:15;2.38;;;2.28;;
57985;SDS011;43788;42.670;23.330;2022-11-14T17:02:41;2.03;;;1.92;;
57985;SDS011;43788;42.670;23.330;2022-11-14T17:05:07;1.98;;;1.88;;
57985;SDS011;43788;42.670;23.330;2022-11-14T17:07:32;1.90;;;1.80;;
57985;SDS011;43788;42.670;23.330;2022-11-14T17:09:59;1.73;;;1.63;;
57985;SDS011;43788;42.670;23.330;2022-11-14T17:12:25;2.53;;;2.33;;
57985;SDS011;43788;42.670;23.330;2022-11-14T17:14:50;3.47;;;2.15;;
57985;SDS011;43788;42.670;23.330;2022-11-14T17:17:16;2.35;;;2.20;;
57985;SDS011;43788;42.670;23.330;2022-11-14T17:19:41;2.53;;;2.33;;
57985;SDS011;43788;42.670;23.330;2022-11-14T17:22:14;3.70;;;2.10;;
57985;SDS011;43788;42.670;23.330;2022-11-14T17:29:57;2.08;;;1.98;;
57985;SDS011;43788;42.670;23.330;2022-11-14T17:32:23;1.77;;;1.67;;
57985;SDS011;43788;42.670;23.330;2022-11-14T17:34:50;2.65;;;2.08;;
57985;SDS011;43788;42.670;23.330;2022-11-14T17:37:16;2.72;;;2.20;;
57985;SDS011;43788;42.670;23.330;2022-11-14T17:39:42;2.30;;;2.10;;
57985;SDS011;43788;42.670;23.330;2022-11-14T17:42:07;2.22;;;2.03;;
57985;SDS011;43788;42.670;23.330;2022-11-14T17:44:33;2.40;;;2.28;;
57985;SDS011;43788;42.670;23.330;2022-11-14T17:46:58;2.72;;;2.45;;
57985;SDS011;43788;42.670;23.330;2022-11-14T17:49:23;1.95;;;1.85;;
57985;SDS011;43788;42.670;23.330;2022-11-14T17:51:49;1.70;;;1.60;;
57985;SDS011;43788;42.670;23.330;2022-11-14T17:54:14;1.60;;;1.50;;
57985;SDS011;43788;42.670;23.330;2022-11-14T17:56:40;2.40;;;2.20;;
57985;SDS011;43788;42.670;23.330;2022-11-14T17:59:07;2.47;;;2.28;;